Last 24 Hours

Squaw-Red Dog 6200'

Hourly Data | America/Los_Angeles
as of 10/27/20 8:31 PM PDT
Date & Time Temp (°F) RH (%) Dew Pt (°F) Wet Bulb (°F) Wind Dir (°) Wind Spd (mph) Wind Gust (mph) Latest Rain (In) New Snow (in) SnowDepth (in) Daily Min Temp (°F) Daily Max Temp (°F) Daily Rain (In)
10/27/20 - 2000 43.2 42 21.8 35.3 W | 260 1.3 3.2 0.00 80.7 290.0 24.7 59.3 0.00
10/27/20 - 1900 47.8 35 21.6 37.7 WSW | 253 2.3 7.9 0.00 82.9 293.4 24.7 59.3 0.00
10/27/20 - 1800 53.4 26 19.0 39.9 SSW | 206 3.6 8.5 0.00 80.3 290.6 24.7 59.3 0.00
10/27/20 - 1700 54.5 26 19.9 40.6 SSW | 211 4.0 10.6 0.00 82.4 294.3 24.7 59.3 0.00
10/27/20 - 1600 58.6 21 18.6 42.3 S | 171 6.8 14.8 0.00 81.9 293.4 24.7 59.3 0.00
10/27/20 - 1500 58.1 24 21.9 42.8 S | 190 6.1 11.2 0.00 82.1 291.9 24.7 58.3 0.00
10/27/20 - 1400 56.0 34 27.8 43.5 S | 186 5.5 14.1 0.00 82.0 294.0 24.7 56.4 0.00
10/27/20 - 1300 53.5 37 27.6 42.3 S | 179 5.7 11.6 0.00 80.8 291.1 24.7 53.7 0.00
10/27/20 - 1200 52.6 36 26.4 41.5 S | 183 7.2 14.6 0.00 80.1 290.7 24.7 53.0 0.00
10/27/20 - 1100 48.1 40 24.9 38.8 SW | 231 3.4 11.1 0.00 81.6 291.4 24.7 48.1 0.00
10/27/20 - 1000 37.7 46 19.0 31.3 W | 279 1.8 3.3 0.00 80.8 288.6 24.7 37.7 0.00
10/27/20 - 0900 28.2 90 25.6 27.2 NW | 309 1.3 3.6 0.00 81.0 290.8 24.7 28.4 0.00
10/27/20 - 0800 25.4 65 15.3 22.4 NW | 317 1.3 4.4 0.00 79.4 287.6 25.0 28.4 0.00
10/27/20 - 0700 25.0 54 10.6 21.2 NNW | 328 1.6 4.2 0.00 78.8 285.5 25.0 28.4 0.00
10/27/20 - 0600 26.0 56 12.5 22.2 NW | 310 1.4 4.1 0.00 80.6 289.4 25.0 28.4 0.00
10/27/20 - 0500 27.2 71 19.2 24.6 NNW | 335 1.5 3.9 0.00 79.4 288.4 25.0 28.4 0.00
10/27/20 - 0400 26.0 60 13.9 22.5 NW | 310 1.5 4.0 0.00 80.8 288.3 25.0 28.4 0.00
10/27/20 - 0300 25.6 73 18.3 23.3 NW | 312 0.8 3.2 0.00 79.4 287.5 25.0 28.4 0.00
10/27/20 - 0200 26.2 84 22.0 24.7 NNW | 328 0.8 3.3 0.00 78.4 285.8 25.9 28.4 0.00
10/27/20 - 0100 26.8 40 5.9 21.6 NW | 326 1.7 3.6 0.00 78.1 285.2 26.8 28.4 0.00
10/27/20 - 0000 27.7 76 21.2 25.5 NNW | 332 1.9 4.2 0.00 78.2 285.8 21.7 46.9 0.00
10/26/20 - 2300 28.6 75 21.6 26.2 NW | 320 2.4 4.1 0.00 78.4 286.2 21.7 46.9 0.00
10/26/20 - 2200 29.3 58 16.5 25.3 WNW | 299 1.7 4.3 0.00 78.4 286.0 21.7 46.9 0.00
10/26/20 - 2100 32.2 22 -2.8 24.0 W | 263 0.9 2.5 0.00 80.4 288.3 21.7 46.9 0.00
10/26/20 - 2000 34.4 21 -1.2 25.7 W | 263 1.5 2.8 0.00 81.3 290.4 21.7 46.9 0.00
Max 58.6 90 27.8 43.5 - 7.2 14.8 0.00 82.9 294.3 26.8 59.3 0.00
Avg 38.1 48 17.9 30.9 - 2.7 6.5 0.00 80.3 289.4 - - -
Min 25.0 21 -2.8 21.2 - 0.8 2.5 0.00 78.1 285.2 21.7 28.4 0.00
Total - - - - - - - 0.00 - - - - -